Time;durP1;ratioP1;P1;durP2;ratioP2;P2;SDS_P1;SDS_P2;PMS_P1;PMS_P2;Temp;Humidity;BMP_temperature;BMP_pressure;BME280_temperature;BME280_humidity;BME280_pressure;Samples;Min_cycle;Max_cycle;Signal;HPM_P1;HPM_P2
2022/04/14 00:00:17;;;;;;;29.42;16.65;;;256.50;1228.80;;;;;;4846239;29;20029;-60
2022/04/14 00:02:43;;;;;;;27.25;16.23;;;256.40;1254.40;;;;;;4846055;29;20045;-60
2022/04/14 00:05:09;;;;;;;27.45;16.05;;;256.30;1254.40;;;;;;4846230;29;20034;-59
2022/04/14 00:07:36;;;;;;;29.95;16.65;;;256.30;1254.40;;;;;;4846197;29;20469;-59
2022/04/14 00:10:03;;;;;;;27.30;15.82;;;256.30;1254.40;;;;;;4829502;29;20106;-59
2022/04/14 00:12:29;;;;;;;23.50;15.18;;;256.20;1280.00;;;;;;4845840;29;20052;-59
2022/04/14 00:14:54;;;;;;;25.52;15.40;;;256.10;1254.40;;;;;;4828887;29;20038;-60
2022/04/14 00:17:20;;;;;;;27.50;13.95;;;256.10;1280.00;;;;;;4845851;29;20030;-59
2022/04/14 00:19:46;;;;;;;22.77;14.65;;;256.10;1280.00;;;;;;4845927;29;20036;-59
2022/04/14 00:22:12;;;;;;;23.00;13.52;;;256.00;1254.40;;;;;;4846197;29;20029;-59
2022/04/14 00:24:37;;;;;;;27.23;14.00;;;256.00;1254.40;;;;;;4845980;29;20489;-59
2022/04/14 00:27:03;;;;;;;22.38;14.13;;;256.00;1305.60;;;;;;4845839;29;20385;-59
2022/04/14 00:29:30;;;;;;;23.58;13.35;;;256.00;1280.00;;;;;;4845757;29;20049;-59
2022/04/14 00:31:56;;;;;;;26.20;15.95;;;231.30;1305.60;;;;;;4845625;29;20045;-59
2022/04/14 00:34:21;;;;;;;31.33;17.13;;;231.30;1305.60;;;;;;4845498;29;20034;-60
2022/04/14 00:36:47;;;;;;;33.85;18.45;;;231.30;1305.60;;;;;;4845699;29;20465;-60
2022/04/14 00:39:13;;;;;;;39.28;18.73;;;231.20;1305.60;;;;;;4845518;29;20030;-60
2022/04/14 00:41:38;;;;;;;32.80;18.60;;;231.20;1331.20;;;;;;4845803;29;20041;-59
2022/04/14 00:44:05;;;;;;;30.67;17.40;;;231.20;1331.20;;;;;;4845578;29;20025;-60
2022/04/14 00:46:31;;;;;;;35.92;20.33;;;231.10;1305.60;;;;;;4845384;29;20053;-59
2022/04/14 00:48:57;;;;;;;35.00;19.33;;;231.10;1331.20;;;;;;4845533;29;20116;-59
2022/04/14 00:51:23;;;;;;;32.90;19.48;;;231.10;1331.20;;;;;;4828719;29;20062;-60
2022/04/14 00:53:49;;;;;;;29.45;19.27;;;231.00;1331.20;;;;;;4845195;29;20377;-59
2022/04/14 00:56:15;;;;;;;29.85;17.80;;;231.00;1356.80;;;;;;4845007;29;20034;-59
2022/04/14 00:58:41;;;;;;;23.95;16.30;;;231.00;1356.80;;;;;;4845248;29;20054;-59
2022/04/14 01:01:08;;;;;;;28.92;16.30;;;230.90;1331.20;;;;;;4845327;29;20540;-59
2022/04/14 01:03:35;;;;;;;27.23;16.08;;;230.90;1356.80;;;;;;4845251;29;20038;-59
2022/04/14 01:06:03;;;;;;;25.73;14.93;;;230.90;1382.40;;;;;;4845236;29;20049;-59
2022/04/14 01:08:32;;;;;;;29.13;16.65;;;230.90;1331.20;;;;;;4845185;29;20034;-59
2022/04/14 01:10:58;;;;;;;28.80;16.70;;;230.80;1356.80;;;;;;4845030;29;20121;-59
2022/04/14 01:13:24;;;;;;;37.15;18.77;;;230.80;1356.80;;;;;;4845157;29;20105;-59
2022/04/14 01:15:59;;;;;;;35.80;20.67;;;230.80;1356.80;;;;;;4845134;29;20492;-60
2022/04/14 01:18:26;;;;;;;37.72;19.25;;;230.80;1382.40;;;;;;4844999;29;20355;-59
2022/04/14 01:20:53;;;;;;;40.78;20.02;;;230.80;1382.40;;;;;;4844903;29;20034;-59
2022/04/14 01:23:24;;;;;;;37.75;20.65;;;230.70;1356.80;;;;;;4845080;29;20033;-59
2022/04/14 01:25:55;;;;;;;35.72;19.92;;;230.70;1382.40;;;;;;4844763;29;20026;-59
2022/04/14 01:28:21;;;;;;;36.80;20.40;;;230.60;1408.00;;;;;;4844508;29;20054;-59
2022/04/14 01:30:46;;;;;;;30.60;19.90;;;230.60;1382.40;;;;;;4844349;29;20088;-59
2022/04/14 01:33:12;;;;;;;44.55;21.63;;;230.50;1408.00;;;;;;4844524;29;20026;-60
2022/04/14 01:35:38;;;;;;;35.17;20.45;;;230.50;1433.60;;;;;;4844771;29;20469;-59
2022/04/14 01:38:04;;;;;;;36.65;19.85;;;230.50;1382.40;;;;;;4844665;29;20026;-59
2022/04/14 01:40:30;;;;;;;40.08;22.60;;;230.40;1408.00;;;;;;4844550;29;20083;-59
2022/04/14 01:42:55;;;;;;;42.60;22.45;;;230.40;1408.00;;;;;;4844527;29;20022;-59
2022/04/14 01:45:21;;;;;;;37.90;22.90;;;230.40;1408.00;;;;;;4845084;29;20405;-59
2022/04/14 01:47:47;;;;;;;37.88;22.27;;;230.40;1408.00;;;;;;4843825;29;20026;-59
2022/04/14 01:50:15;;;;;;;38.08;21.90;;;205.70;1408.00;;;;;;4844305;29;20081;-59
2022/04/14 01:52:42;;;;;;;37.45;22.23;;;205.60;1408.00;;;;;;4844357;29;20026;-59
2022/04/14 01:55:08;;;;;;;37.47;21.90;;;205.60;1433.60;;;;;;4844243;29;20101;-59
2022/04/14 01:57:34;;;;;;;36.92;21.48;;;205.60;1459.20;;;;;;4844183;29;20114;-59
2022/04/14 02:00:01;;;;;;;41.22;22.17;;;205.60;1408.00;;;;;;4844191;29;20030;-59
2022/04/14 02:02:27;;;;;;;39.17;21.75;;;205.60;1408.00;;;;;;4844116;29;20034;-59
2022/04/14 02:04:53;;;;;;;38.45;21.13;;;205.60;1433.60;;;;;;4844013;29;20437;-60
2022/04/14 02:07:19;;;;;;;38.88;22.23;;;205.60;1408.00;;;;;;4843233;29;20026;-59
2022/04/14 02:09:45;;;;;;;43.08;24.10;;;205.50;1433.60;;;;;;4843621;29;20041;-59
2022/04/14 02:12:11;;;;;;;41.90;21.77;;;205.50;1433.60;;;;;;4843985;29;20034;-59
2022/04/14 02:14:38;;;;;;;36.40;20.77;;;205.50;1433.60;;;;;;4843740;29;20046;-59
2022/04/14 02:17:04;;;;;;;37.50;22.10;;;205.40;1433.60;;;;;;4843944;29;20112;-59
2022/04/14 02:19:30;;;;;;;35.13;20.52;;;205.40;1433.60;;;;;;4843121;29;20113;-60
2022/04/14 02:21:59;;;;;;;33.58;20.85;;;205.40;1433.60;;;;;;4843849;29;20289;-60
2022/04/14 02:24:25;;;;;;;36.65;21.85;;;205.30;1433.60;;;;;;4843852;29;20037;-60
2022/04/14 02:26:52;;;;;;;34.58;20.40;;;205.30;1459.20;;;;;;4843640;29;20048;-59
2022/04/14 02:29:18;;;;;;;34.75;20.33;;;205.30;1433.60;;;;;;4843786;29;20430;-60
2022/04/14 02:31:43;;;;;;;37.17;20.10;;;205.30;1433.60;;;;;;4824012;29;20099;-59
2022/04/14 02:34:09;;;;;;;38.90;20.40;;;205.30;1459.20;;;;;;4825559;29;20037;-59
2022/04/14 02:36:35;;;;;;;35.30;20.20;;;205.20;1459.20;;;;;;4825349;29;20496;-59
2022/04/14 02:39:01;;;;;;;36.28;20.48;;;205.20;1433.60;;;;;;4825458;29;20087;-59
2022/04/14 02:41:27;;;;;;;31.90;20.23;;;205.20;1459.20;;;;;;4825449;29;20050;-59
2022/04/14 02:43:53;;;;;;;33.30;19.17;;;205.10;1433.60;;;;;;4825498;29;20080;-59
2022/04/14 02:46:18;;;;;;;31.52;19.02;;;205.00;1459.20;;;;;;4825646;29;20030;-59
2022/04/14 02:48:44;;;;;;;30.38;18.25;;;205.00;1459.20;;;;;;4825401;29;20034;-59
2022/04/14 02:51:10;;;;;;;28.98;17.80;;;205.10;1459.20;;;;;;4825089;29;20034;-60
2022/04/14 02:53:35;;;;;;;32.35;18.77;;;205.00;1433.60;;;;;;4825223;29;20034;-59
2022/04/14 02:56:02;;;;;;;25.17;16.23;;;205.00;1484.80;;;;;;4825410;29;20030;-59
2022/04/14 02:58:29;;;;;;;22.98;15.98;;;204.90;1459.20;;;;;;4825419;29;20026;-59
2022/04/14 03:00:54;;;;;;;31.23;17.05;;;204.90;1459.20;;;;;;4825132;29;20034;-63
2022/04/14 03:03:23;;;;;;;26.90;17.23;;;204.90;1459.20;;;;;;4825284;29;20029;-59
2022/04/14 03:05:50;;;;;;;26.35;16.05;;;204.90;1484.80;;;;;;4825196;29;20038;-59
2022/04/14 03:08:15;;;;;;;28.10;15.65;;;204.90;1459.20;;;;;;4825411;29;20042;-59
2022/04/14 03:10:41;;;;;;;28.58;15.25;;;204.90;1459.20;;;;;;4824875;29;20042;-60
2022/04/14 03:13:07;;;;;;;27.52;14.82;;;204.90;1459.20;;;;;;4824831;29;20027;-60
2022/04/14 03:15:33;;;;;;;24.67;15.05;;;205.00;1459.20;;;;;;4824973;29;20034;-59
2022/04/14 03:17:58;;;;;;;25.38;15.63;;;205.00;1484.80;;;;;;4824595;29;20091;-60
2022/04/14 03:20:24;;;;;;;33.42;14.75;;;205.00;1459.20;;;;;;4824965;29;20401;-59
2022/04/14 03:22:50;;;;;;;23.55;14.60;;;205.00;1459.20;;;;;;4824922;29;20066;-59
2022/04/14 03:25:15;;;;;;;40.55;20.05;;;204.90;1433.60;;;;;;4824861;29;20030;-59
2022/04/14 03:27:42;;;;;;;32.47;20.95;;;204.90;1484.80;;;;;;4824947;29;20384;-59
2022/04/14 03:30:10;;;;;;;46.85;21.75;;;204.90;1484.80;;;;;;4829761;29;20094;-59
2022/04/14 03:32:46;;;;;;;37.78;22.08;;;204.80;1459.20;;;;;;4842631;29;20481;-59
2022/04/14 03:35:14;;;;;;;38.03;20.60;;;204.80;1459.20;;;;;;4842929;29;20033;-59
2022/04/14 03:37:40;;;;;;;36.88;21.25;;;204.80;1484.80;;;;;;4842806;29;20038;-59
2022/04/14 03:40:07;;;;;;;36.33;21.00;;;204.80;1484.80;;;;;;4842785;29;20457;-60
2022/04/14 03:42:33;;;;;;;37.08;21.20;;;204.80;1484.80;;;;;;4842725;29;20041;-59
2022/04/14 03:44:59;;;;;;;35.42;20.35;;;204.80;1484.80;;;;;;4842899;29;20037;-59
2022/04/14 03:47:25;;;;;;;35.05;20.35;;;204.80;1484.80;;;;;;4842836;29;20530;-60
2022/04/14 03:49:51;;;;;;;28.45;18.77;;;204.80;1459.20;;;;;;4843036;29;20469;-60
2022/04/14 03:52:17;;;;;;;34.85;18.73;;;204.80;1484.80;;;;;;4842757;29;20056;-59
2022/04/14 03:54:43;;;;;;;32.13;18.60;;;204.80;1459.20;;;;;;4842670;29;20120;-60
2022/04/14 03:57:10;;;;;;;61.78;25.20;;;204.80;1484.80;;;;;;4842631;29;20073;-60
2022/04/14 03:59:36;;;;;;;90.15;38.08;;;180.10;1484.80;;;;;;4842813;29;20037;-59
2022/04/14 04:02:02;;;;;;;99.28;38.08;;;180.10;1484.80;;;;;;4842369;29;20388;-60
2022/04/14 04:04:28;;;;;;;101.68;39.00;;;180.10;1484.80;;;;;;4842621;29;20055;-59
2022/04/14 04:06:54;;;;;;;103.50;41.35;;;180.00;1484.80;;;;;;4842855;29;20033;-59
2022/04/14 04:09:20;;;;;;;110.88;43.33;;;180.00;1510.40;;;;;;4842697;29;20098;-60
2022/04/14 04:11:46;;;;;;;84.13;39.20;;;180.00;1510.40;;;;;;4842662;29;20129;-59
2022/04/14 04:14:12;;;;;;;98.22;40.38;;;180.00;1484.80;;;;;;4842261;29;20058;-59
2022/04/14 04:16:37;;;;;;;82.03;36.42;;;180.00;1484.80;;;;;;4842477;29;20038;-59
2022/04/14 04:19:03;;;;;;;65.78;33.28;;;179.70;1459.20;;;;;;4842546;29;20034;-59
2022/04/14 04:21:30;;;;;;;58.10;29.10;;;179.50;1510.40;;;;;;4825767;29;20054;-59
2022/04/14 04:23:56;;;;;;;51.30;25.58;;;179.50;1536.00;;;;;;4842627;29;20054;-59
2022/04/14 04:26:22;;;;;;;46.55;23.52;;;179.50;1536.00;;;;;;4842175;29;20081;-59
2022/04/14 04:28:48;;;;;;;51.28;24.67;;;179.50;1510.40;;;;;;4842420;29;20081;-59
2022/04/14 04:31:13;;;;;;;41.03;22.25;;;179.40;1510.40;;;;;;4844941;29;20054;-59
2022/04/14 04:33:39;;;;;;;38.10;20.33;;;179.40;1484.80;;;;;;4845675;29;20038;-59
2022/04/14 04:36:05;;;;;;;40.83;21.05;;;179.50;1536.00;;;;;;4845739;29;20026;-59
2022/04/14 04:38:31;;;;;;;59.42;28.48;;;179.50;1536.00;;;;;;4845900;29;20081;-59
2022/04/14 04:40:58;;;;;;;135.05;47.53;;;179.50;1536.00;;;;;;4845916;29;20026;-59
2022/04/14 04:43:25;;;;;;;159.85;56.92;;;179.50;1510.40;;;;;;4845528;29;20414;-59
2022/04/14 04:45:50;;;;;;;234.30;98.13;;;179.50;1536.00;;;;;;4845537;29;20377;-59
2022/04/14 04:48:16;;;;;;;195.25;90.55;;;179.50;1510.40;;;;;;4845461;29;20034;-59
2022/04/14 04:50:42;;;;;;;146.95;68.47;;;179.30;1510.40;;;;;;4845341;29;20034;-59
2022/04/14 04:53:08;;;;;;;179.43;80.40;;;179.40;1536.00;;;;;;4845388;29;20098;-60
2022/04/14 04:55:34;;;;;;;169.00;77.03;;;179.50;1536.00;;;;;;4845394;29;20033;-60
2022/04/14 04:57:59;;;;;;;123.60;60.60;;;179.60;1561.60;;;;;;4845399;29;20032;-59
2022/04/14 05:00:25;;;;;;;85.00;42.50;;;179.60;1561.60;;;;;;4845480;29;20112;-59
2022/04/14 05:02:51;;;;;;;64.35;33.30;;;179.60;1561.60;;;;;;4845053;29;20037;-59
2022/04/14 05:05:18;;;;;;;42.70;26.13;;;179.70;1561.60;;;;;;4844500;29;20038;-59
2022/04/14 05:07:44;;;;;;;48.40;23.27;;;179.80;1561.60;;;;;;4845295;29;20045;-59
2022/04/14 05:10:10;;;;;;;38.40;21.83;;;179.80;1536.00;;;;;;4828564;29;20053;-60
2022/04/14 05:12:35;;;;;;;43.90;24.65;;;179.90;1561.60;;;;;;4845183;29;20109;-59
2022/04/14 05:15:01;;;;;;;48.50;25.65;;;180.00;1561.60;;;;;;4827898;29;20064;-59
2022/04/14 05:17:27;;;;;;;53.78;27.33;;;180.00;1561.60;;;;;;4845219;29;20034;-59
2022/04/14 05:19:52;;;;;;;76.40;34.92;;;180.10;1561.60;;;;;;4844953;29;20030;-59
2022/04/14 05:22:18;;;;;;;106.00;45.25;;;180.10;1561.60;;;;;;4845022;29;20054;-60
2022/04/14 05:24:44;;;;;;;96.60;40.90;;;204.80;1536.00;;;;;;4844975;29;20034;-59
2022/04/14 05:27:09;;;;;;;75.82;35.45;;;204.80;1510.40;;;;;;4844973;29;20030;-60
2022/04/14 05:29:36;;;;;;;57.42;25.00;;;204.90;1536.00;;;;;;4844422;29;20074;-59
2022/04/14 05:32:01;;;;;;;35.70;16.75;;;205.00;1536.00;;;;;;4844471;29;20029;-59
2022/04/14 05:34:27;;;;;;;19.73;12.45;;;205.10;1484.80;;;;;;4827416;29;20545;-59
2022/04/14 05:36:53;;;;;;;21.08;12.27;;;205.20;1459.20;;;;;;4844421;29;20048;-59
2022/04/14 05:39:19;;;;;;;19.85;12.52;;;205.30;1459.20;;;;;;4844465;29;20062;-59
2022/04/14 05:41:45;;;;;;;50.78;16.23;;;205.40;1484.80;;;;;;4844403;29;20061;-59
2022/04/14 05:44:10;;;;;;;23.73;13.73;;;205.50;1484.80;;;;;;4844421;29;20038;-58
2022/04/14 05:46:36;;;;;;;28.90;15.25;;;205.50;1433.60;;;;;;4844978;29;20030;-60
2022/04/14 05:49:02;;;;;;;28.38;13.18;;;205.60;1382.40;;;;;;4844441;29;20029;-59
2022/04/14 05:51:28;;;;;;;32.15;13.45;;;205.70;1433.60;;;;;;4844529;29;20038;-59
2022/04/14 05:53:54;;;;;;;36.22;12.13;;;230.40;1433.60;;;;;;4844516;29;20379;-59
2022/04/14 05:56:20;;;;;;;24.40;11.07;;;230.50;1382.40;;;;;;4843993;29;20059;-59
2022/04/14 05:58:46;;;;;;;21.95;11.82;;;230.60;1356.80;;;;;;4843876;29;20026;-59
2022/04/14 06:01:12;;;;;;;22.38;10.88;;;230.70;1331.20;;;;;;4844116;29;20480;-59
2022/04/14 06:03:38;;;;;;;23.52;11.07;;;230.80;1356.80;;;;;;4844052;29;20030;-59
2022/04/14 06:06:05;;;;;;;21.90;11.77;;;230.90;1382.40;;;;;;4843973;29;20094;-59
2022/04/14 06:08:31;;;;;;;22.27;11.57;;;231.00;1382.40;;;;;;4844003;29;20392;-58
2022/04/14 06:10:57;;;;;;;21.63;11.82;;;231.10;1331.20;;;;;;4843790;29;20042;-59
2022/04/14 06:13:22;;;;;;;22.95;12.63;;;231.20;1356.80;;;;;;4843880;29;20048;-60
2022/04/14 06:15:48;;;;;;;23.00;11.88;;;231.30;1356.80;;;;;;4843674;29;20034;-59
2022/04/14 06:18:14;;;;;;;23.27;12.02;;;256.00;1356.80;;;;;;4843812;29;20026;-59
2022/04/14 06:20:39;;;;;;;17.13;10.40;;;256.00;1356.80;;;;;;4843867;29;20038;-58
2022/04/14 06:23:05;;;;;;;26.52;11.07;;;256.10;1331.20;;;;;;4843817;29;20034;-59
2022/04/14 06:25:31;;;;;;;25.27;11.38;;;256.30;1382.40;;;;;;4843671;29;20029;-59
2022/04/14 06:27:57;;;;;;;25.77;11.77;;;256.40;1382.40;;;;;;4843900;29;20040;-59
2022/04/14 06:30:22;;;;;;;28.52;12.57;;;256.60;1331.20;;;;;;4843550;29;20052;-59
2022/04/14 06:32:58;;;;;;;30.10;13.00;;;256.70;1356.80;;;;;;4843778;29;20358;-59
2022/04/14 06:35:24;;;;;;;54.25;20.60;;;256.90;1331.20;;;;;;4843594;29;20414;-59
2022/04/14 06:37:50;;;;;;;51.03;21.25;;;281.60;1382.40;;;;;;4843437;29;20468;-59
2022/04/14 06:40:16;;;;;;;46.30;18.83;;;281.80;1356.80;;;;;;4844031;29;20026;-59
2022/04/14 06:42:42;;;;;;;51.63;17.10;;;282.00;1356.80;;;;;;4843614;29;20571;-59
2022/04/14 06:45:08;;;;;;;27.30;12.32;;;282.10;1356.80;;;;;;4843386;29;20409;-59
2022/04/14 06:47:33;;;;;;;372.35;31.33;;;282.30;1331.20;;;;;;4843278;29;20541;-59
2022/04/14 06:49:59;;;;;;;194.82;21.75;;;282.40;1356.80;;;;;;4843317;29;20037;-59
2022/04/14 06:52:25;;;;;;;116.60;16.45;;;307.20;1433.60;;;;;;4826166;29;20038;-59
2022/04/14 06:54:51;;;;;;;140.63;18.58;;;307.40;1408.00;;;;;;4843134;29;20022;-59
2022/04/14 06:57:18;;;;;;;92.20;16.40;;;307.50;1433.60;;;;;;4843388;29;20038;-59
2022/04/14 06:59:44;;;;;;;222.25;25.92;;;307.60;1356.80;;;;;;4843091;29;20017;-60
2022/04/14 07:02:10;;;;;;;58.10;13.98;;;307.80;1280.00;;;;;;4843139;29;20026;-59
2022/04/14 07:04:36;;;;;;;62.90;12.57;;;307.90;1280.00;;;;;;4842991;29;20378;-59
2022/04/14 07:07:02;;;;;;;50.85;12.02;;;308.00;1280.00;;;;;;4843419;29;20085;-60
2022/04/14 07:09:33;;;;;;;433.98;49.80;;;332.80;1331.20;;;;;;4842647;29;20734;-59
2022/04/14 07:12:03;;;;;;;112.03;25.63;;;333.00;1382.40;;;;;;4843139;29;20046;-59
2022/04/14 07:14:30;;;;;;;622.80;128.02;;;333.10;1203.20;;;;;;4842895;29;20049;-60
2022/04/14 07:16:57;;;;;;;362.20;87.78;;;333.30;1228.80;;;;;;4842972;29;20034;-59
2022/04/14 07:19:23;;;;;;;105.78;27.95;;;333.40;1203.20;;;;;;4842827;29;20057;-59
2022/04/14 07:21:49;;;;;;;52.22;14.73;;;333.60;1203.20;;;;;;4843047;29;20034;-59
2022/04/14 07:24:15;;;;;;;57.53;12.85;;;358.40;1177.60;;;;;;4843199;29;20037;-59
2022/04/14 07:26:40;;;;;;;30.92;10.82;;;358.50;1126.40;;;;;;4842369;29;20031;-59
2022/04/14 07:29:06;;;;;;;18.52;8.05;;;358.70;1152.00;;;;;;4842974;29;20365;-59
2022/04/14 07:31:32;;;;;;;19.45;7.53;;;358.80;1126.40;;;;;;4842731;29;20061;-59
2022/04/14 07:34:01;;;;;;;78.63;53.10;;;359.00;1075.20;;;;;;4842801;29;20121;-59
2022/04/14 07:36:26;;;;;;;18.67;14.13;;;359.10;1024.00;;;;;;4842662;29;20034;-59
2022/04/14 07:38:52;;;;;;;15.70;9.45;;;359.30;947.20;;;;;;4842713;29;20366;-59
2022/04/14 07:41:18;;;;;;;15.05;7.47;;;384.10;921.60;;;;;;4843124;29;20034;-60
2022/04/14 07:43:44;;;;;;;10.70;6.05;;;384.20;921.60;;;;;;4842979;29;20117;-60
2022/04/14 07:46:09;;;;;;;9.55;6.38;;;384.40;844.80;;;;;;4842793;29;20464;-59
2022/04/14 07:48:35;;;;;;;18.38;6.15;;;384.50;844.80;;;;;;4842731;29;20034;-59
2022/04/14 07:51:01;;;;;;;13.88;7.15;;;384.70;896.00;;;;;;4842779;29;20549;-59
2022/04/14 07:53:37;;;;;;;13.18;6.65;;;384.80;844.80;;;;;;4842763;29;20082;-59
2022/04/14 07:56:05;;;;;;;12.02;5.53;;;409.60;844.80;;;;;;4826262;29;20034;-59
2022/04/14 07:58:31;;;;;;;40.92;8.88;;;409.70;870.40;;;;;;4842834;29;20034;-59
2022/04/14 08:00:57;;;;;;;48.70;8.93;;;409.90;844.80;;;;;;4842533;29;20182;-59
2022/04/14 08:03:23;;;;;;;15.98;6.68;;;410.10;844.80;;;;;;4842711;29;20516;-59
2022/04/14 08:05:49;;;;;;;13.77;7.93;;;410.20;819.20;;;;;;4845314;29;20034;-59
2022/04/14 08:08:19;;;;;;;14.45;8.45;;;410.30;793.60;;;;;;4846024;29;20489;-59
2022/04/14 08:10:48;;;;;;;23.58;8.15;;;410.50;844.80;;;;;;4846185;29;20069;-59
2022/04/14 08:13:14;;;;;;;18.15;6.85;;;435.20;793.60;;;;;;4852383;29;20021;-59
2022/04/14 08:15:40;;;;;;;10.48;6.50;;;435.40;819.20;;;;;;4853555;29;20040;-59
2022/04/14 08:18:07;;;;;;;9.75;6.30;;;435.50;768.00;;;;;;4853263;29;20018;-59
2022/04/14 08:20:34;;;;;;;14.93;6.82;;;435.70;819.20;;;;;;4858102;29;20100;-59
2022/04/14 08:23:02;;;;;;;11.35;7.50;;;435.80;819.20;;;;;;4864492;29;20056;-59
2022/04/14 08:25:33;;;;;;;15.15;6.93;;;436.00;793.60;;;;;;4864356;29;20053;-59
2022/04/14 08:28:00;;;;;;;11.63;7.20;;;436.10;768.00;;;;;;4864398;29;20032;-60
2022/04/14 08:30:29;;;;;;;11.75;7.53;;;460.80;819.20;;;;;;4864261;29;20407;-59
2022/04/14 08:32:55;;;;;;;11.23;7.20;;;460.90;819.20;;;;;;4863963;29;20033;-59
2022/04/14 08:35:21;;;;;;;15.98;8.13;;;461.10;768.00;;;;;;4863803;29;20036;-59
2022/04/14 08:37:48;;;;;;;17.70;8.70;;;461.20;819.20;;;;;;4854095;29;20098;-59
2022/04/14 08:40:17;;;;;;;15.02;7.35;;;461.20;793.60;;;;;;4854788;29;20029;-59
2022/04/14 08:43:00;;;;;;;13.88;7.68;;;461.30;768.00;;;;;;4854885;29;20022;-59
2022/04/14 08:45:35;;;;;;;12.88;7.03;;;461.40;793.60;;;;;;4854767;29;20053;-59
2022/04/14 08:48:02;;;;;;;7.47;5.50;;;461.50;742.40;;;;;;4854097;29;20074;-59
2022/04/14 08:50:28;;;;;;;11.23;6.20;;;461.30;691.20;;;;;;4852950;29;20541;-60
2022/04/14 08:52:55;;;;;;;13.68;5.25;;;461.40;691.20;;;;;;4854739;29;20065;-60
2022/04/14 08:55:21;;;;;;;10.68;4.88;;;461.60;716.80;;;;;;4854336;29;20105;-60
2022/04/14 08:57:47;;;;;;;12.20;4.65;;;461.60;691.20;;;;;;4835981;29;20068;-60
2022/04/14 09:00:16;;;;;;;6.82;4.40;;;486.40;691.20;;;;;;4845333;29;20036;-60
2022/04/14 09:02:46;;;;;;;8.18;4.80;;;486.40;691.20;;;;;;4845098;29;20080;-60
2022/04/14 09:05:17;;;;;;;10.50;4.90;;;486.50;691.20;;;;;;4828455;29;20070;-60
2022/04/14 09:07:46;;;;;;;6.22;4.20;;;486.60;691.20;;;;;;4841850;29;20041;-60
2022/04/14 09:10:12;;;;;;;8.05;4.47;;;486.80;691.20;;;;;;4853579;29;20105;-60
2022/04/14 09:12:38;;;;;;;8.40;5.32;;;486.70;665.60;;;;;;4852844;29;20389;-60
2022/04/14 09:15:05;;;;;;;6.65;4.70;;;486.80;691.20;;;;;;4851410;29;20121;-60
2022/04/14 09:17:31;;;;;;;6.13;4.30;;;486.80;665.60;;;;;;4853818;29;20060;-60
2022/04/14 09:19:56;;;;;;;10.90;4.07;;;487.00;640.00;;;;;;4827926;29;20381;-60
2022/04/14 09:22:23;;;;;;;5.28;3.72;;;487.10;640.00;;;;;;4844285;29;20034;-60
2022/04/14 09:24:54;;;;;;;7.75;4.05;;;487.10;665.60;;;;;;4845045;29;20076;-60
2022/04/14 09:27:28;;;;;;;9.68;4.00;;;487.10;691.20;;;;;;4844677;29;20061;-60
2022/04/14 09:29:57;;;;;;;9.93;3.85;;;487.20;665.60;;;;;;4844065;29;20057;-60
2022/04/14 09:32:30;;;;;;;5.90;3.97;;;487.30;691.20;;;;;;4844875;29;20090;-60
2022/04/14 09:34:58;;;;;;;7.45;4.15;;;512.00;691.20;;;;;;4849313;29;20089;-62
2022/04/14 09:37:26;;;;;;;11.70;3.40;;;512.10;691.20;;;;;;4852558;29;20029;-61
2022/04/14 09:40:00;;;;;;;5.10;3.05;;;512.30;665.60;;;;;;4835173;29;20025;-60
2022/04/14 09:42:31;;;;;;;7.47;3.20;;;512.40;640.00;;;;;;4851448;29;20556;-61
2022/04/14 09:45:25;;;;;;;8.88;3.60;;;512.60;640.00;;;;;;4831696;29;20112;-61
2022/04/14 09:47:53;;;;;;;4.30;2.97;;;512.70;665.60;;;;;;4836714;29;20037;-61
2022/04/14 09:50:29;;;;;;;5.43;2.70;;;512.80;640.00;;;;;;4862532;29;20507;-61
2022/04/14 09:52:59;;;;;;;5.47;3.20;;;537.60;640.00;;;;;;4858999;29;20085;-60
2022/04/14 09:55:24;;;;;;;9.52;3.80;;;537.60;640.00;;;;;;4862342;29;20071;-60
2022/04/14 09:58:09;;;;;;;6.75;3.22;;;537.80;640.00;;;;;;4862283;29;20057;-61
2022/04/14 10:00:49;;;;;;;13.15;5.53;;;537.90;588.80;;;;;;4862743;29;20049;-60
2022/04/14 10:03:18;;;;;;;7.78;3.38;;;538.00;614.40;;;;;;4862402;29;20077;-61
2022/04/14 10:05:50;;;;;;;14.63;3.60;;;538.20;614.40;;;;;;4862597;29;20026;-61
2022/04/14 10:08:17;;;;;;;12.63;2.28;;;538.30;614.40;;;;;;4861858;29;20059;-61
2022/04/14 10:10:47;;;;;;;10.75;3.78;;;538.40;588.80;;;;;;4857712;29;20365;-61
2022/04/14 10:13:17;;;;;;;7.22;3.38;;;563.20;588.80;;;;;;4862594;29;20076;-61
2022/04/14 10:15:45;;;;;;;8.48;3.40;;;563.30;588.80;;;;;;4862518;29;20034;-60
2022/04/14 10:18:16;;;;;;;12.10;3.35;;;563.40;588.80;;;;;;4861795;29;20026;-60
2022/04/14 10:20:44;;;;;;;4.20;2.67;;;563.40;614.40;;;;;;4862186;29;20030;-61
2022/04/14 10:23:14;;;;;;;7.25;4.15;;;563.50;614.40;;;;;;4862093;29;20484;-60
2022/04/14 10:25:42;;;;;;;6.88;3.30;;;563.50;588.80;;;;;;4862206;29;20044;-61
2022/04/14 10:28:13;;;;;;;7.00;2.80;;;563.60;588.80;;;;;;4861345;29;20180;-61
2022/04/14 10:30:44;;;;;;;3.58;2.63;;;563.50;588.80;;;;;;4859295;29;20050;-61
2022/04/14 10:33:12;;;;;;;4.72;2.85;;;563.50;614.40;;;;;;4857123;29;20045;-61
2022/04/14 10:35:37;;;;;;;5.43;3.05;;;563.50;614.40;;;;;;4845423;29;20029;-61
2022/04/14 10:38:24;;;;;;;5.55;2.80;;;563.50;588.80;;;;;;4862286;29;20094;-61
2022/04/14 10:40:56;;;;;;;4.18;3.20;;;563.50;588.80;;;;;;4862060;29;20125;-60
2022/04/14 10:43:25;;;;;;;4.35;2.50;;;563.60;588.80;;;;;;4862104;29;20061;-61
2022/04/14 10:45:53;;;;;;;11.32;4.15;;;563.60;588.80;;;;;;4828540;29;20080;-60
2022/04/14 10:48:45;;;;;;;6.30;4.40;;;563.60;588.80;;;;;;4843172;29;20034;-61
2022/04/14 10:51:18;;;;;;;7.65;4.35;;;563.60;588.80;;;;;;4844687;29;20038;-61
2022/04/14 10:54:04;;;;;;;7.55;3.95;;;563.60;588.80;;;;;;4861832;29;20033;-60
2022/04/14 10:56:41;;;;;;;4.55;2.92;;;563.70;588.80;;;;;;4861633;29;20041;-61
2022/04/14 10:59:32;;;;;;;9.63;5.45;;;563.70;563.20;;;;;;4861799;29;20113;-61
2022/04/14 11:02:04;;;;;;;10.68;3.60;;;563.70;563.20;;;;;;4861789;29;20124;-61
2022/04/14 11:04:42;;;;;;;11.73;3.10;;;563.90;537.60;;;;;;4861700;29;20519;-61
2022/04/14 11:07:21;;;;;;;11.35;3.72;;;563.90;537.60;;;;;;4861385;29;20082;-61
2022/04/14 11:09:57;;;;;;;5.65;2.67;;;563.90;563.20;;;;;;4859967;29;20039;-61
2022/04/14 11:12:41;;;;;;;3.47;2.78;;;563.90;537.60;;;;;;4808602;29;20042;-61
2022/04/14 11:15:10;;;;;;;5.85;2.58;;;563.90;537.60;;;;;;4825178;29;20030;-61
2022/04/14 11:17:48;;;;;;;3.75;3.00;;;563.70;563.20;;;;;;4824203;29;20125;-60
2022/04/14 11:20:44;;;;;;;5.13;2.38;;;563.90;563.20;;;;;;4825041;29;20497;-60
2022/04/14 11:23:24;;;;;;;4.18;3.00;;;563.90;563.20;;;;;;4821571;29;20557;-60
2022/04/14 11:26:06;;;;;;;4.30;2.90;;;564.10;537.60;;;;;;4824960;29;20057;-61
2022/04/14 11:28:34;;;;;;;17.65;3.60;;;564.10;563.20;;;;;;4838638;29;20039;-61
2022/04/14 11:31:18;;;;;;;22.02;4.68;;;564.10;588.80;;;;;;4824711;29;20469;-61
2022/04/14 11:33:46;;;;;;;16.05;4.18;;;588.80;588.80;;;;;;4824491;29;20034;-62
2022/04/14 11:36:14;;;;;;;11.70;3.42;;;588.80;563.20;;;;;;4824611;29;20030;-61
2022/04/14 11:38:51;;;;;;;12.32;3.53;;;588.80;588.80;;;;;;4825783;29;20026;-61
2022/04/14 11:41:36;;;;;;;10.43;3.13;;;588.80;588.80;;;;;;4828469;29;20035;-62
2022/04/14 11:44:04;;;;;;;11.50;3.60;;;588.80;588.80;;;;;;4828394;29;20025;-61
2022/04/14 11:46:30;;;;;;;9.82;3.35;;;588.80;563.20;;;;;;4828077;29;20139;-61
2022/04/14 11:48:58;;;;;;;6.00;2.92;;;588.80;563.20;;;;;;4846612;29;20033;-61
2022/04/14 11:51:24;;;;;;;8.60;3.45;;;564.10;588.80;;;;;;4850879;29;20038;-60
2022/04/14 11:53:53;;;;;;;3.67;2.80;;;588.80;588.80;;;;;;4854999;29;20041;-60
2022/04/14 11:56:19;;;;;;;4.35;3.00;;;589.00;588.80;;;;;;4851451;29;20085;-61
2022/04/14 11:58:46;;;;;;;3.90;2.97;;;588.90;563.20;;;;;;4854014;29;20021;-60
2022/04/14 12:01:12;;;;;;;4.40;2.70;;;588.90;537.60;;;;;;4854558;29;20109;-61
2022/04/14 12:03:39;;;;;;;8.15;2.72;;;588.90;537.60;;;;;;4853602;29;20041;-60
2022/04/14 12:06:06;;;;;;;5.43;2.72;;;588.90;563.20;;;;;;4854027;29;20025;-60
2022/04/14 12:08:33;;;;;;;5.03;2.97;;;588.80;563.20;;;;;;4854778;29;20479;-60